sensor_id;sensor_type;location;lat;lon;timestamp;P1;durP1;ratioP1;P2;durP2;ratioP2
2313;SDS011;42279;51.388;7.000;2023-04-01T00:02:17;1.47;;;1.00;;
2313;SDS011;42279;51.388;7.000;2023-04-01T00:04:43;0.63;;;0.63;;
2313;SDS011;42279;51.388;7.000;2023-04-01T00:07:09;3.33;;;1.07;;
2313;SDS011;42279;51.388;7.000;2023-04-01T00:09:35;1.60;;;0.83;;
2313;SDS011;42279;51.388;7.000;2023-04-01T00:12:02;1.03;;;0.80;;
2313;SDS011;42279;51.388;7.000;2023-04-01T00:14:28;1.20;;;0.80;;
2313;SDS011;42279;51.388;7.000;2023-04-01T00:16:55;1.70;;;0.77;;
2313;SDS011;42279;51.388;7.000;2023-04-01T00:19:21;1.40;;;1.30;;
2313;SDS011;42279;51.388;7.000;2023-04-01T00:21:47;2.03;;;1.20;;
2313;SDS011;42279;51.388;7.000;2023-04-01T00:24:13;1.17;;;1.10;;
2313;SDS011;42279;51.388;7.000;2023-04-01T00:26:39;1.00;;;0.93;;
2313;SDS011;42279;51.388;7.000;2023-04-01T00:29:07;2.57;;;0.90;;
2313;SDS011;42279;51.388;7.000;2023-04-01T00:31:33;1.00;;;0.90;;
2313;SDS011;42279;51.388;7.000;2023-04-01T00:33:59;1.50;;;0.93;;
2313;SDS011;42279;51.388;7.000;2023-04-01T00:36:26;0.50;;;0.50;;
2313;SDS011;42279;51.388;7.000;2023-04-01T00:38:52;3.03;;;0.80;;
2313;SDS011;42279;51.388;7.000;2023-04-01T00:41:18;0.80;;;0.80;;
2313;SDS011;42279;51.388;7.000;2023-04-01T00:43:47;5.60;;;1.10;;
2313;SDS011;42279;51.388;7.000;2023-04-01T00:46:13;0.67;;;0.67;;
2313;SDS011;42279;51.388;7.000;2023-04-01T00:48:41;1.90;;;1.57;;
2313;SDS011;42279;51.388;7.000;2023-04-01T00:51:09;0.80;;;0.80;;
2313;SDS011;42279;51.388;7.000;2023-04-01T00:53:36;1.60;;;1.17;;
2313;SDS011;42279;51.388;7.000;2023-04-01T00:58:36;0.60;;;0.60;;
2313;SDS011;42279;51.388;7.000;2023-04-01T01:01:04;2.90;;;0.83;;
2313;SDS011;42279;51.388;7.000;2023-04-01T01:03:31;0.73;;;0.73;;
2313;SDS011;42279;51.388;7.000;2023-04-01T01:06:08;0.87;;;0.87;;
2313;SDS011;42279;51.388;7.000;2023-04-01T01:11:10;0.60;;;0.60;;
2313;SDS011;42279;51.388;7.000;2023-04-01T01:13:59;4.03;;;0.83;;
2313;SDS011;42279;51.388;7.000;2023-04-01T01:16:30;0.60;;;0.60;;
2313;SDS011;42279;51.388;7.000;2023-04-01T01:24:08;1.30;;;0.70;;
2313;SDS011;42279;51.388;7.000;2023-04-01T01:26:48;0.97;;;0.97;;
2313;SDS011;42279;51.388;7.000;2023-04-01T01:29:29;2.13;;;0.80;;
2313;SDS011;42279;51.388;7.000;2023-04-01T01:32:10;1.27;;;0.83;;
2313;SDS011;42279;51.388;7.000;2023-04-01T01:37:05;0.60;;;0.60;;
2313;SDS011;42279;51.388;7.000;2023-04-01T01:39:34;0.73;;;0.73;;
2313;SDS011;42279;51.388;7.000;2023-04-01T01:42:03;0.40;;;0.40;;
2313;SDS011;42279;51.388;7.000;2023-04-01T01:44:30;0.63;;;0.63;;
2313;SDS011;42279;51.388;7.000;2023-04-01T01:46:57;2.73;;;0.70;;
2313;SDS011;42279;51.388;7.000;2023-04-01T01:49:23;0.73;;;0.73;;
2313;SDS011;42279;51.388;7.000;2023-04-01T01:51:50;2.10;;;0.77;;
2313;SDS011;42279;51.388;7.000;2023-04-01T01:54:16;0.40;;;0.40;;
2313;SDS011;42279;51.388;7.000;2023-04-01T01:56:44;1.70;;;1.13;;
2313;SDS011;42279;51.388;7.000;2023-04-01T01:59:13;0.50;;;0.50;;
2313;SDS011;42279;51.388;7.000;2023-04-01T02:01:41;0.80;;;0.80;;
2313;SDS011;42279;51.388;7.000;2023-04-01T02:04:09;5.33;;;1.10;;
2313;SDS011;42279;51.388;7.000;2023-04-01T02:06:36;3.30;;;1.53;;
2313;SDS011;42279;51.388;7.000;2023-04-01T02:09:04;0.60;;;0.60;;
2313;SDS011;42279;51.388;7.000;2023-04-01T02:16:43;1.03;;;1.03;;
2313;SDS011;42279;51.388;7.000;2023-04-01T02:19:12;0.90;;;0.90;;
2313;SDS011;42279;51.388;7.000;2023-04-01T02:21:39;1.03;;;1.03;;
2313;SDS011;42279;51.388;7.000;2023-04-01T02:24:06;0.70;;;0.70;;
2313;SDS011;42279;51.388;7.000;2023-04-01T02:26:33;1.80;;;1.70;;
2313;SDS011;42279;51.388;7.000;2023-04-01T02:29:02;1.13;;;1.13;;
2313;SDS011;42279;51.388;7.000;2023-04-01T02:31:32;0.80;;;0.77;;
2313;SDS011;42279;51.388;7.000;2023-04-01T02:33:59;0.87;;;0.87;;
2313;SDS011;42279;51.388;7.000;2023-04-01T02:36:26;1.03;;;1.00;;
2313;SDS011;42279;51.388;7.000;2023-04-01T02:39:13;0.70;;;0.70;;
2313;SDS011;42279;51.388;7.000;2023-04-01T02:41:40;1.60;;;1.60;;
2313;SDS011;42279;51.388;7.000;2023-04-01T02:44:06;0.90;;;0.90;;
2313;SDS011;42279;51.388;7.000;2023-04-01T02:46:32;1.27;;;1.00;;
2313;SDS011;42279;51.388;7.000;2023-04-01T02:48:58;1.20;;;0.77;;
2313;SDS011;42279;51.388;7.000;2023-04-01T02:51:25;0.70;;;0.70;;
2313;SDS011;42279;51.388;7.000;2023-04-01T02:53:51;0.70;;;0.70;;
2313;SDS011;42279;51.388;7.000;2023-04-01T02:56:17;1.80;;;0.93;;
2313;SDS011;42279;51.388;7.000;2023-04-01T02:58:44;2.73;;;1.03;;
2313;SDS011;42279;51.388;7.000;2023-04-01T03:01:10;1.07;;;0.97;;
2313;SDS011;42279;51.388;7.000;2023-04-01T03:03:36;0.97;;;0.97;;
2313;SDS011;42279;51.388;7.000;2023-04-01T03:06:06;1.03;;;0.73;;
2313;SDS011;42279;51.388;7.000;2023-04-01T03:08:32;1.00;;;0.90;;
2313;SDS011;42279;51.388;7.000;2023-04-01T03:10:58;0.80;;;0.80;;
2313;SDS011;42279;51.388;7.000;2023-04-01T03:13:24;0.70;;;0.70;;
2313;SDS011;42279;51.388;7.000;2023-04-01T03:15:50;2.20;;;1.20;;
2313;SDS011;42279;51.388;7.000;2023-04-01T03:18:16;1.13;;;1.13;;
2313;SDS011;42279;51.388;7.000;2023-04-01T03:20:42;0.83;;;0.83;;
2313;SDS011;42279;51.388;7.000;2023-04-01T03:23:08;1.07;;;1.07;;
2313;SDS011;42279;51.388;7.000;2023-04-01T03:25:34;1.60;;;1.00;;
2313;SDS011;42279;51.388;7.000;2023-04-01T03:28:00;1.13;;;1.03;;
2313;SDS011;42279;51.388;7.000;2023-04-01T03:30:27;1.50;;;1.30;;
2313;SDS011;42279;51.388;7.000;2023-04-01T03:32:56;1.43;;;1.43;;
2313;SDS011;42279;51.388;7.000;2023-04-01T03:35:23;0.90;;;0.90;;
2313;SDS011;42279;51.388;7.000;2023-04-01T03:37:53;1.03;;;1.03;;
2313;SDS011;42279;51.388;7.000;2023-04-01T03:40:19;1.67;;;1.67;;
2313;SDS011;42279;51.388;7.000;2023-04-01T03:42:45;1.10;;;1.10;;
2313;SDS011;42279;51.388;7.000;2023-04-01T03:45:11;0.70;;;0.70;;
2313;SDS011;42279;51.388;7.000;2023-04-01T03:47:37;1.00;;;1.00;;
2313;SDS011;42279;51.388;7.000;2023-04-01T03:50:04;1.57;;;1.57;;
2313;SDS011;42279;51.388;7.000;2023-04-01T03:52:30;0.93;;;0.93;;
2313;SDS011;42279;51.388;7.000;2023-04-01T03:54:56;1.10;;;1.10;;
2313;SDS011;42279;51.388;7.000;2023-04-01T03:57:22;0.60;;;0.60;;
2313;SDS011;42279;51.388;7.000;2023-04-01T03:59:48;0.70;;;0.70;;
2313;SDS011;42279;51.388;7.000;2023-04-01T04:02:15;1.00;;;1.00;;
2313;SDS011;42279;51.388;7.000;2023-04-01T04:04:41;1.10;;;1.10;;
2313;SDS011;42279;51.388;7.000;2023-04-01T04:07:07;1.17;;;1.17;;
2313;SDS011;42279;51.388;7.000;2023-04-01T04:09:33;1.30;;;1.30;;
2313;SDS011;42279;51.388;7.000;2023-04-01T04:12:00;1.30;;;1.30;;
2313;SDS011;42279;51.388;7.000;2023-04-01T04:14:26;0.77;;;0.77;;
2313;SDS011;42279;51.388;7.000;2023-04-01T04:16:52;0.93;;;0.93;;
2313;SDS011;42279;51.388;7.000;2023-04-01T04:19:19;1.33;;;1.27;;
2313;SDS011;42279;51.388;7.000;2023-04-01T04:21:45;2.00;;;2.00;;
2313;SDS011;42279;51.388;7.000;2023-04-01T04:24:11;1.47;;;1.17;;
2313;SDS011;42279;51.388;7.000;2023-04-01T04:26:37;1.80;;;1.70;;
2313;SDS011;42279;51.388;7.000;2023-04-01T04:29:03;1.30;;;1.30;;
2313;SDS011;42279;51.388;7.000;2023-04-01T04:31:29;1.73;;;1.27;;
2313;SDS011;42279;51.388;7.000;2023-04-01T04:33:55;1.10;;;1.10;;
2313;SDS011;42279;51.388;7.000;2023-04-01T04:36:21;1.43;;;1.30;;
2313;SDS011;42279;51.388;7.000;2023-04-01T04:38:47;1.00;;;1.00;;
2313;SDS011;42279;51.388;7.000;2023-04-01T04:41:14;1.30;;;1.30;;
2313;SDS011;42279;51.388;7.000;2023-04-01T04:43:48;0.80;;;0.80;;
2313;SDS011;42279;51.388;7.000;2023-04-01T04:46:14;1.60;;;1.60;;
2313;SDS011;42279;51.388;7.000;2023-04-01T04:48:40;1.30;;;1.30;;
2313;SDS011;42279;51.388;7.000;2023-04-01T04:51:11;1.00;;;1.00;;
2313;SDS011;42279;51.388;7.000;2023-04-01T04:53:38;1.10;;;1.10;;
2313;SDS011;42279;51.388;7.000;2023-04-01T04:56:04;1.47;;;1.07;;
2313;SDS011;42279;51.388;7.000;2023-04-01T04:58:30;0.93;;;0.93;;
2313;SDS011;42279;51.388;7.000;2023-04-01T05:00:56;1.23;;;1.23;;
2313;SDS011;42279;51.388;7.000;2023-04-01T05:03:22;1.20;;;1.20;;
2313;SDS011;42279;51.388;7.000;2023-04-01T05:05:50;1.37;;;1.37;;
2313;SDS011;42279;51.388;7.000;2023-04-01T05:08:16;1.13;;;1.13;;
2313;SDS011;42279;51.388;7.000;2023-04-01T05:10:43;1.37;;;1.27;;
2313;SDS011;42279;51.388;7.000;2023-04-01T05:13:09;1.10;;;1.10;;
2313;SDS011;42279;51.388;7.000;2023-04-01T05:15:35;1.37;;;1.37;;
2313;SDS011;42279;51.388;7.000;2023-04-01T05:18:02;1.77;;;1.77;;
2313;SDS011;42279;51.388;7.000;2023-04-01T05:20:28;2.73;;;1.50;;
2313;SDS011;42279;51.388;7.000;2023-04-01T05:22:57;1.27;;;1.27;;
2313;SDS011;42279;51.388;7.000;2023-04-01T05:25:24;1.60;;;1.60;;
2313;SDS011;42279;51.388;7.000;2023-04-01T05:27:50;1.50;;;1.50;;
2313;SDS011;42279;51.388;7.000;2023-04-01T05:30:16;1.70;;;1.57;;
2313;SDS011;42279;51.388;7.000;2023-04-01T05:32:42;1.60;;;1.60;;
2313;SDS011;42279;51.388;7.000;2023-04-01T05:35:08;1.30;;;1.20;;
2313;SDS011;42279;51.388;7.000;2023-04-01T05:37:35;1.17;;;1.17;;
2313;SDS011;42279;51.388;7.000;2023-04-01T05:40:01;0.97;;;0.97;;
2313;SDS011;42279;51.388;7.000;2023-04-01T05:42:27;2.20;;;1.53;;
2313;SDS011;42279;51.388;7.000;2023-04-01T05:44:53;1.53;;;1.50;;
2313;SDS011;42279;51.388;7.000;2023-04-01T05:47:20;1.90;;;1.80;;
2313;SDS011;42279;51.388;7.000;2023-04-01T05:49:47;1.97;;;1.87;;
2313;SDS011;42279;51.388;7.000;2023-04-01T05:52:13;1.57;;;1.47;;
2313;SDS011;42279;51.388;7.000;2023-04-01T05:54:39;1.50;;;1.50;;
2313;SDS011;42279;51.388;7.000;2023-04-01T05:57:05;1.80;;;1.80;;
2313;SDS011;42279;51.388;7.000;2023-04-01T05:59:31;1.90;;;1.80;;
2313;SDS011;42279;51.388;7.000;2023-04-01T06:01:59;1.70;;;1.70;;
2313;SDS011;42279;51.388;7.000;2023-04-01T06:04:26;2.37;;;2.37;;
2313;SDS011;42279;51.388;7.000;2023-04-01T06:06:55;1.40;;;1.40;;
2313;SDS011;42279;51.388;7.000;2023-04-01T06:09:25;1.80;;;1.80;;
2313;SDS011;42279;51.388;7.000;2023-04-01T06:12:07;1.73;;;1.73;;
2313;SDS011;42279;51.388;7.000;2023-04-01T06:14:47;2.00;;;1.90;;
2313;SDS011;42279;51.388;7.000;2023-04-01T06:17:26;1.80;;;1.80;;
2313;SDS011;42279;51.388;7.000;2023-04-01T06:20:00;2.30;;;2.30;;
2313;SDS011;42279;51.388;7.000;2023-04-01T06:45:32;8.50;;;7.07;;
2313;SDS011;42279;51.388;7.000;2023-04-01T06:48:51;2.30;;;2.20;;
2313;SDS011;42279;51.388;7.000;2023-04-01T06:50:51;3.20;;;2.77;;
2313;SDS011;42279;51.388;7.000;2023-04-01T06:55:49;1.70;;;1.70;;
2313;SDS011;42279;51.388;7.000;2023-04-01T06:58:20;2.00;;;2.00;;
2313;SDS011;42279;51.388;7.000;2023-04-01T07:00:48;2.90;;;2.80;;
2313;SDS011;42279;51.388;7.000;2023-04-01T07:03:23;2.50;;;2.07;;
2313;SDS011;42279;51.388;7.000;2023-04-01T07:05:54;1.97;;;1.97;;
2313;SDS011;42279;51.388;7.000;2023-04-01T07:08:23;1.97;;;1.97;;
2313;SDS011;42279;51.388;7.000;2023-04-01T07:10:53;2.40;;;2.10;;
2313;SDS011;42279;51.388;7.000;2023-04-01T07:13:36;43.67;;;22.90;;
2313;SDS011;42279;51.388;7.000;2023-04-01T07:18:51;2.23;;;2.20;;
2313;SDS011;42279;51.388;7.000;2023-04-01T07:21:40;1.87;;;1.87;;
2313;SDS011;42279;51.388;7.000;2023-04-01T07:24:06;1.20;;;1.20;;
2313;SDS011;42279;51.388;7.000;2023-04-01T07:26:35;1.70;;;1.70;;
2313;SDS011;42279;51.388;7.000;2023-04-01T07:29:01;1.87;;;1.87;;
2313;SDS011;42279;51.388;7.000;2023-04-01T07:31:49;1.80;;;1.80;;
2313;SDS011;42279;51.388;7.000;2023-04-01T07:34:28;1.80;;;1.80;;
2313;SDS011;42279;51.388;7.000;2023-04-01T07:39:32;1.83;;;1.80;;
2313;SDS011;42279;51.388;7.000;2023-04-01T07:47:32;2.40;;;2.40;;
2313;SDS011;42279;51.388;7.000;2023-04-01T07:52:33;1.90;;;1.90;;
2313;SDS011;42279;51.388;7.000;2023-04-01T07:55:05;1.60;;;1.53;;
2313;SDS011;42279;51.388;7.000;2023-04-01T07:57:43;2.03;;;2.03;;
2313;SDS011;42279;51.388;7.000;2023-04-01T08:09:59;2.40;;;2.40;;
2313;SDS011;42279;51.388;7.000;2023-04-01T08:23:07;3.23;;;3.03;;
2313;SDS011;42279;51.388;7.000;2023-04-01T08:25:37;3.00;;;3.00;;
2313;SDS011;42279;51.388;7.000;2023-04-01T08:30:35;3.63;;;3.53;;
2313;SDS011;42279;51.388;7.000;2023-04-01T08:33:10;3.90;;;3.80;;
2313;SDS011;42279;51.388;7.000;2023-04-01T08:35:41;4.30;;;4.10;;
2313;SDS011;42279;51.388;7.000;2023-04-01T08:38:12;3.53;;;3.53;;
2313;SDS011;42279;51.388;7.000;2023-04-01T09:05:47;4.03;;;3.83;;
2313;SDS011;42279;51.388;7.000;2023-04-01T09:16:50;2.90;;;2.90;;
2313;SDS011;42279;51.388;7.000;2023-04-01T09:19:24;4.97;;;4.67;;
2313;SDS011;42279;51.388;7.000;2023-04-01T09:38:16;5.60;;;5.20;;
2313;SDS011;42279;51.388;7.000;2023-04-01T09:46:25;5.93;;;5.50;;
2313;SDS011;42279;51.388;7.000;2023-04-01T09:49:12;5.30;;;5.00;;
2313;SDS011;42279;51.388;7.000;2023-04-01T10:02:43;5.90;;;5.50;;
2313;SDS011;42279;51.388;7.000;2023-04-01T10:08:16;7.50;;;6.80;;
2313;SDS011;42279;51.388;7.000;2023-04-01T10:10:54;8.30;;;7.70;;
2313;SDS011;42279;51.388;7.000;2023-04-01T10:16:23;7.20;;;6.70;;
2313;SDS011;42279;51.388;7.000;2023-04-01T10:26:46;11.37;;;10.03;;
2313;SDS011;42279;51.388;7.000;2023-04-01T10:34:36;10.17;;;9.13;;
2313;SDS011;42279;51.388;7.000;2023-04-01T10:37:15;12.93;;;9.33;;
2313;SDS011;42279;51.388;7.000;2023-04-01T10:42:32;7.00;;;6.30;;
2313;SDS011;42279;51.388;7.000;2023-04-01T10:55:14;7.87;;;6.93;;
2313;SDS011;42279;51.388;7.000;2023-04-01T11:02:59;6.87;;;6.17;;
2313;SDS011;42279;51.388;7.000;2023-04-01T11:33:57;6.47;;;5.47;;
2313;SDS011;42279;51.388;7.000;2023-04-01T11:44:27;5.67;;;5.27;;
2313;SDS011;42279;51.388;7.000;2023-04-01T11:49:44;11.70;;;9.43;;
2313;SDS011;42279;51.388;7.000;2023-04-01T12:15:56;7.17;;;6.77;;
2313;SDS011;42279;51.388;7.000;2023-04-01T12:26:05;5.03;;;4.73;;
2313;SDS011;42279;51.388;7.000;2023-04-01T12:31:14;7.97;;;7.37;;
2313;SDS011;42279;51.388;7.000;2023-04-01T12:36:31;8.47;;;7.67;;
2313;SDS011;42279;51.388;7.000;2023-04-01T12:41:54;8.33;;;7.73;;
2313;SDS011;42279;51.388;7.000;2023-04-01T12:44:38;6.97;;;6.27;;
2313;SDS011;42279;51.388;7.000;2023-04-01T12:54:59;10.60;;;9.60;;
2313;SDS011;42279;51.388;7.000;2023-04-01T13:02:41;10.07;;;7.70;;
2313;SDS011;42279;51.388;7.000;2023-04-01T13:05:17;14.20;;;8.80;;
2313;SDS011;42279;51.388;7.000;2023-04-01T13:08:04;9.23;;;8.33;;
2313;SDS011;42279;51.388;7.000;2023-04-01T13:16:24;11.20;;;9.23;;
2313;SDS011;42279;51.388;7.000;2023-04-01T13:27:00;10.90;;;9.90;;
2313;SDS011;42279;51.388;7.000;2023-04-01T13:29:31;8.20;;;7.40;;
2313;SDS011;42279;51.388;7.000;2023-04-01T13:34:42;8.90;;;8.07;;
2313;SDS011;42279;51.388;7.000;2023-04-01T13:42:24;8.93;;;8.03;;
2313;SDS011;42279;51.388;7.000;2023-04-01T14:00:55;6.40;;;5.77;;
2313;SDS011;42279;51.388;7.000;2023-04-01T14:03:37;7.73;;;7.13;;
2313;SDS011;42279;51.388;7.000;2023-04-01T14:06:09;14.37;;;7.90;;
2313;SDS011;42279;51.388;7.000;2023-04-01T14:11:28;7.37;;;6.27;;
2313;SDS011;42279;51.388;7.000;2023-04-01T14:14:01;10.47;;;9.47;;
2313;SDS011;42279;51.388;7.000;2023-04-01T14:24:50;5.47;;;4.97;;
2313;SDS011;42279;51.388;7.000;2023-04-01T14:32:51;7.23;;;6.50;;
2313;SDS011;42279;51.388;7.000;2023-04-01T14:40:48;8.80;;;8.00;;
2313;SDS011;42279;51.388;7.000;2023-04-01T14:48:34;8.73;;;7.83;;
2313;SDS011;42279;51.388;7.000;2023-04-01T14:51:03;8.30;;;7.50;;
2313;SDS011;42279;51.388;7.000;2023-04-01T14:53:38;8.17;;;7.37;;
2313;SDS011;42279;51.388;7.000;2023-04-01T14:56:07;9.10;;;7.23;;
2313;SDS011;42279;51.388;7.000;2023-04-01T15:16:50;9.57;;;8.43;;
2313;SDS011;42279;51.388;7.000;2023-04-01T15:27:19;7.73;;;7.13;;
2313;SDS011;42279;51.388;7.000;2023-04-01T15:37:37;9.37;;;8.37;;
2313;SDS011;42279;51.388;7.000;2023-04-01T15:45:41;5.40;;;5.00;;
2313;SDS011;42279;51.388;7.000;2023-04-01T16:09:01;4.70;;;4.43;;
2313;SDS011;42279;51.388;7.000;2023-04-01T16:14:27;6.43;;;5.93;;
2313;SDS011;42279;51.388;7.000;2023-04-01T16:19:37;6.30;;;5.90;;
2313;SDS011;42279;51.388;7.000;2023-04-01T16:22:06;5.63;;;5.23;;
2313;SDS011;42279;51.388;7.000;2023-04-01T16:29:38;8.13;;;7.50;;
2313;SDS011;42279;51.388;7.000;2023-04-01T16:37:20;7.60;;;6.90;;
2313;SDS011;42279;51.388;7.000;2023-04-01T16:47:45;9.57;;;7.97;;
2313;SDS011;42279;51.388;7.000;2023-04-01T16:50:19;10.77;;;9.70;;
2313;SDS011;42279;51.388;7.000;2023-04-01T16:55:14;8.70;;;7.93;;
2313;SDS011;42279;51.388;7.000;2023-04-01T16:57:50;7.00;;;6.50;;
2313;SDS011;42279;51.388;7.000;2023-04-01T17:03:04;6.57;;;6.00;;
2313;SDS011;42279;51.388;7.000;2023-04-01T17:05:44;6.73;;;6.20;;
2313;SDS011;42279;51.388;7.000;2023-04-01T17:08:24;9.13;;;8.23;;
2313;SDS011;42279;51.388;7.000;2023-04-01T17:11:05;7.57;;;6.87;;
2313;SDS011;42279;51.388;7.000;2023-04-01T17:13:35;9.83;;;7.60;;
2313;SDS011;42279;51.388;7.000;2023-04-01T17:16:10;6.73;;;6.30;;
2313;SDS011;42279;51.388;7.000;2023-04-01T17:23:51;8.50;;;7.80;;
2313;SDS011;42279;51.388;7.000;2023-04-01T17:28:49;7.43;;;6.87;;
2313;SDS011;42279;51.388;7.000;2023-04-01T17:31:30;7.70;;;7.20;;
2313;SDS011;42279;51.388;7.000;2023-04-01T17:34:09;8.67;;;7.77;;
2313;SDS011;42279;51.388;7.000;2023-04-01T17:42:06;7.50;;;6.77;;
2313;SDS011;42279;51.388;7.000;2023-04-01T17:44:44;7.90;;;7.30;;
2313;SDS011;42279;51.388;7.000;2023-04-01T17:52:39;11.13;;;9.93;;
2313;SDS011;42279;51.388;7.000;2023-04-01T18:25:02;12.27;;;10.97;;
2313;SDS011;42279;51.388;7.000;2023-04-01T18:27:36;13.70;;;11.00;;
2313;SDS011;42279;51.388;7.000;2023-04-01T18:32:43;15.23;;;13.17;;
2313;SDS011;42279;51.388;7.000;2023-04-01T18:40:20;15.00;;;12.07;;
2313;SDS011;42279;51.388;7.000;2023-04-01T18:43:08;17.57;;;12.43;;
2313;SDS011;42279;51.388;7.000;2023-04-01T18:48:08;13.53;;;12.13;;
2313;SDS011;42279;51.388;7.000;2023-04-01T18:50:58;14.27;;;12.30;;
2313;SDS011;42279;51.388;7.000;2023-04-01T18:56:11;13.73;;;12.17;;
2313;SDS011;42279;51.388;7.000;2023-04-01T18:58:46;18.77;;;13.10;;
2313;SDS011;42279;51.388;7.000;2023-04-01T19:01:47;13.93;;;11.47;;
2313;SDS011;42279;51.388;7.000;2023-04-01T19:04:20;14.23;;;12.80;;
2313;SDS011;42279;51.388;7.000;2023-04-01T19:09:25;13.93;;;12.63;;
2313;SDS011;42279;51.388;7.000;2023-04-01T19:19:38;16.30;;;12.63;;
2313;SDS011;42279;51.388;7.000;2023-04-01T19:24:53;13.67;;;11.90;;
2313;SDS011;42279;51.388;7.000;2023-04-01T19:27:34;11.27;;;9.87;;
2313;SDS011;42279;51.388;7.000;2023-04-01T19:39:59;11.17;;;9.50;;
2313;SDS011;42279;51.388;7.000;2023-04-01T19:42:43;9.10;;;8.10;;
2313;SDS011;42279;51.388;7.000;2023-04-01T19:53:02;6.77;;;6.27;;
2313;SDS011;42279;51.388;7.000;2023-04-01T19:55:36;6.50;;;6.00;;
2313;SDS011;42279;51.388;7.000;2023-04-01T20:00:50;8.43;;;7.80;;
2313;SDS011;42279;51.388;7.000;2023-04-01T20:16:11;9.07;;;8.37;;
2313;SDS011;42279;51.388;7.000;2023-04-01T20:19:11;7.50;;;7.00;;
2313;SDS011;42279;51.388;7.000;2023-04-01T20:21:52;7.57;;;7.07;;
2313;SDS011;42279;51.388;7.000;2023-04-01T20:24:33;6.80;;;6.40;;
2313;SDS011;42279;51.388;7.000;2023-04-01T20:27:20;7.70;;;7.20;;
2313;SDS011;42279;51.388;7.000;2023-04-01T20:29:54;7.30;;;6.90;;
2313;SDS011;42279;51.388;7.000;2023-04-01T20:35:11;7.37;;;6.87;;
2313;SDS011;42279;51.388;7.000;2023-04-01T20:38:05;7.23;;;6.83;;
2313;SDS011;42279;51.388;7.000;2023-04-01T20:50:39;4.63;;;4.40;;
2313;SDS011;42279;51.388;7.000;2023-04-01T20:53:28;6.50;;;6.10;;
2313;SDS011;42279;51.388;7.000;2023-04-01T21:05:00;5.63;;;5.43;;
2313;SDS011;42279;51.388;7.000;2023-04-01T21:12:22;5.90;;;5.60;;
2313;SDS011;42279;51.388;7.000;2023-04-01T21:22:45;4.47;;;4.37;;
2313;SDS011;42279;51.388;7.000;2023-04-01T21:33:28;4.33;;;4.23;;
2313;SDS011;42279;51.388;7.000;2023-04-01T21:36:08;4.63;;;4.40;;
2313;SDS011;42279;51.388;7.000;2023-04-01T21:41:34;5.70;;;5.50;;
2313;SDS011;42279;51.388;7.000;2023-04-01T21:49:49;7.27;;;6.97;;
2313;SDS011;42279;51.388;7.000;2023-04-01T21:54:52;7.03;;;6.63;;
2313;SDS011;42279;51.388;7.000;2023-04-01T22:05:49;6.80;;;6.50;;
2313;SDS011;42279;51.388;7.000;2023-04-01T22:08:30;6.73;;;6.43;;
2313;SDS011;42279;51.388;7.000;2023-04-01T22:11:06;7.03;;;6.73;;
2313;SDS011;42279;51.388;7.000;2023-04-01T22:19:58;6.00;;;5.80;;
2313;SDS011;42279;51.388;7.000;2023-04-01T22:22:01;5.20;;;4.90;;
2313;SDS011;42279;51.388;7.000;2023-04-01T22:27:01;5.70;;;5.50;;
2313;SDS011;42279;51.388;7.000;2023-04-01T22:37:15;6.10;;;5.80;;
2313;SDS011;42279;51.388;7.000;2023-04-01T22:42:45;6.33;;;5.93;;
2313;SDS011;42279;51.388;7.000;2023-04-01T22:50:14;6.97;;;6.57;;
2313;SDS011;42279;51.388;7.000;2023-04-01T22:52:42;6.50;;;6.10;;
2313;SDS011;42279;51.388;7.000;2023-04-01T22:55:17;5.80;;;5.57;;
2313;SDS011;42279;51.388;7.000;2023-04-01T22:57:50;5.80;;;5.53;;
2313;SDS011;42279;51.388;7.000;2023-04-01T23:00:20;6.17;;;5.90;;
2313;SDS011;42279;51.388;7.000;2023-04-01T23:05:17;5.63;;;5.40;;
2313;SDS011;42279;51.388;7.000;2023-04-01T23:10:16;5.60;;;5.20;;
2313;SDS011;42279;51.388;7.000;2023-04-01T23:12:44;5.30;;;5.00;;
2313;SDS011;42279;51.388;7.000;2023-04-01T23:15:13;6.13;;;5.83;;
2313;SDS011;42279;51.388;7.000;2023-04-01T23:20:23;6.30;;;6.00;;
2313;SDS011;42279;51.388;7.000;2023-04-01T23:22:57;7.83;;;7.23;;
2313;SDS011;42279;51.388;7.000;2023-04-01T23:25:32;6.83;;;6.43;;
2313;SDS011;42279;51.388;7.000;2023-04-01T23:35:49;8.63;;;8.03;;
2313;SDS011;42279;51.388;7.000;2023-04-01T23:38:16;7.53;;;7.03;;
2313;SDS011;42279;51.388;7.000;2023-04-01T23:40:42;9.20;;;8.60;;
2313;SDS011;42279;51.388;7.000;2023-04-01T23:43:12;9.20;;;6.53;;
2313;SDS011;42279;51.388;7.000;2023-04-01T23:45:41;6.13;;;5.80;;
2313;SDS011;42279;51.388;7.000;2023-04-01T23:48:10;7.17;;;6.67;;
2313;SDS011;42279;51.388;7.000;2023-04-01T23:50:37;7.53;;;7.10;;
2313;SDS011;42279;51.388;7.000;2023-04-01T23:53:11;7.87;;;7.37;;
2313;SDS011;42279;51.388;7.000;2023-04-01T23:55:39;9.10;;;8.45;;
